Time;durP1;ratioP1;P1;durP2;ratioP2;P2;SDS_P1;SDS_P2;PMS_P1;PMS_P2;Temp;Humidity;BMP_temperature;BMP_pressure;BME280_temperature;BME280_humidity;BME280_pressure;Samples;Min_cycle;Max_cycle;Signal;HPM_P1;HPM_P2
2021/04/22 00:01:27;;;;;;;9.07;2.47;;;7.70;99.90;;;;;;5073090;28;20174;-74
2021/04/22 00:03:53;;;;;;;6.50;2.87;;;7.60;99.90;;;;;;5073857;28;20201;-74
2021/04/22 00:06:18;;;;;;;7.73;2.80;;;7.60;99.90;;;;;;5073744;28;20178;-75
2021/04/22 00:08:44;;;;;;;8.20;2.23;;;7.50;99.90;;;;;;5073414;28;20746;-74
2021/04/22 00:11:09;;;;;;;17.50;3.77;;;7.50;99.90;;;;;;5073635;28;20182;-74
2021/04/22 00:13:35;;;;;;;7.33;2.50;;;7.50;99.90;;;;;;5073460;28;20678;-75
2021/04/22 00:16:01;;;;;;;7.40;3.63;;;7.40;99.90;;;;;;5073534;28;20235;-74
2021/04/22 00:18:27;;;;;;;6.07;2.70;;;7.40;99.90;;;;;;5073509;28;20224;-74
2021/04/22 00:20:53;;;;;;;6.37;2.57;;;7.40;99.90;;;;;;5070627;28;20937;-73
2021/04/22 00:23:20;;;;;;;11.00;3.60;;;7.30;99.90;;;;;;5067621;28;20439;-74
2021/04/22 00:25:46;;;;;;;13.03;3.50;;;7.20;99.90;;;;;;5082937;28;20525;-74
2021/04/22 00:28:14;;;;;;;12.27;2.97;;;7.20;99.90;;;;;;5071842;28;20913;-74
2021/04/22 00:30:41;;;;;;;11.33;3.63;;;7.20;99.90;;;;;;5070618;28;20428;-74
2021/04/22 00:33:09;;;;;;;6.40;2.67;;;7.10;99.90;;;;;;5058693;28;20508;-73
2021/04/22 00:35:35;;;;;;;12.03;4.33;;;7.00;99.90;;;;;;5075361;28;20838;-73
2021/04/22 00:38:04;;;;;;;12.00;2.93;;;7.00;99.90;;;;;;5076349;28;20472;-74
2021/04/22 00:40:31;;;;;;;13.17;2.97;;;6.90;99.90;;;;;;5075044;28;20608;-73
2021/04/22 00:43:05;;;;;;;8.07;3.57;;;6.90;99.90;;;;;;5074119;28;20451;-74
2021/04/22 00:45:31;;;;;;;15.63;3.20;;;6.80;99.90;;;;;;5073044;28;20403;-74
2021/04/22 00:47:57;;;;;;;12.83;4.17;;;6.80;99.90;;;;;;5071687;28;20408;-74
2021/04/22 00:50:26;;;;;;;16.93;4.10;;;6.70;99.90;;;;;;5059799;28;20419;-74
2021/04/22 00:52:53;;;;;;;11.60;3.73;;;6.70;99.90;;;;;;5068860;28;20601;-74
2021/04/22 00:55:19;;;;;;;6.13;2.90;;;6.60;99.90;;;;;;5059236;28;20443;-74
2021/04/22 00:57:45;;;;;;;9.93;3.53;;;6.50;99.90;;;;;;5071082;28;21024;-74
2021/04/22 01:00:12;;;;;;;5.60;2.87;;;6.50;99.90;;;;;;5072716;28;20751;-74
2021/04/22 01:02:38;;;;;;;6.33;3.00;;;6.50;99.90;;;;;;5072486;28;20251;-74
2021/04/22 01:05:09;;;;;;;14.10;4.10;;;6.20;99.90;;;;;;5072543;28;20409;-73
2021/04/22 01:07:40;;;;;;;16.70;3.47;;;6.10;99.90;;;;;;5072309;28;20423;-74
2021/04/22 01:10:07;;;;;;;10.60;2.90;;;6.10;99.90;;;;;;5081283;28;20427;-74
2021/04/22 01:12:33;;;;;;;13.23;3.60;;;6.00;99.90;;;;;;5066886;28;20454;-73
2021/04/22 01:14:59;;;;;;;8.63;2.60;;;6.00;99.90;;;;;;5074278;28;20469;-74
2021/04/22 01:17:24;;;;;;;14.10;2.90;;;6.10;99.90;;;;;;5074667;28;20471;-74
2021/04/22 01:19:50;;;;;;;4.50;2.20;;;6.10;99.90;;;;;;5089461;28;20174;-74
2021/04/22 01:22:15;;;;;;;6.90;2.83;;;6.10;99.90;;;;;;5078490;28;20670;-74
2021/04/22 01:24:41;;;;;;;11.10;3.50;;;6.20;99.90;;;;;;5080253;28;20178;-74
2021/04/22 01:27:07;;;;;;;11.37;4.30;;;6.20;99.90;;;;;;5082002;28;20194;-73
2021/04/22 01:29:33;;;;;;;14.63;3.33;;;6.20;99.90;;;;;;5093950;28;20185;-74
2021/04/22 01:31:59;;;;;;;12.23;3.00;;;6.10;99.90;;;;;;5081254;28;20454;-74
2021/04/22 01:34:24;;;;;;;7.97;3.33;;;6.10;99.90;;;;;;5079345;28;20223;-74
2021/04/22 01:36:50;;;;;;;11.03;3.10;;;6.10;99.90;;;;;;5083664;28;20218;-73
2021/04/22 01:39:15;;;;;;;5.00;2.50;;;6.10;99.90;;;;;;5080897;28;20182;-73
2021/04/22 01:41:42;;;;;;;11.03;3.17;;;6.00;99.90;;;;;;5086096;28;20577;-73
2021/04/22 01:44:08;;;;;;;12.60;3.47;;;6.00;99.90;;;;;;5082155;28;20182;-73
2021/04/22 01:46:34;;;;;;;18.17;4.50;;;6.00;99.90;;;;;;5071792;28;20439;-73
2021/04/22 01:48:59;;;;;;;17.10;4.30;;;6.00;99.90;;;;;;5071953;28;20491;-73
2021/04/22 01:51:25;;;;;;;6.70;2.73;;;5.90;99.90;;;;;;5074113;28;20232;-73
2021/04/22 01:53:51;;;;;;;13.40;3.67;;;5.90;99.90;;;;;;5090344;28;20177;-73
2021/04/22 01:56:18;;;;;;;13.33;3.73;;;5.90;99.90;;;;;;5073025;28;20291;-73
2021/04/22 01:58:44;;;;;;;19.47;4.30;;;5.90;99.90;;;;;;5087974;28;20467;-73
2021/04/22 02:01:10;;;;;;;12.20;2.90;;;5.80;99.90;;;;;;5085006;28;20434;-73
2021/04/22 02:03:36;;;;;;;10.93;3.13;;;5.80;99.90;;;;;;5091877;28;20478;-73
2021/04/22 02:06:04;;;;;;;11.60;3.80;;;5.80;99.90;;;;;;5074182;28;20447;-74
2021/04/22 02:08:30;;;;;;;8.40;2.33;;;5.80;99.90;;;;;;5074269;28;20451;-74
2021/04/22 02:10:56;;;;;;;18.00;3.80;;;5.70;99.90;;;;;;5071809;28;20451;-74
2021/04/22 02:13:23;;;;;;;12.47;3.10;;;5.70;99.90;;;;;;5072811;28;20448;-74
2021/04/22 02:15:49;;;;;;;7.33;3.43;;;5.70;99.90;;;;;;5070753;28;20178;-74
2021/04/22 02:18:15;;;;;;;13.67;3.63;;;5.60;99.90;;;;;;5076123;28;20421;-74
2021/04/22 02:20:41;;;;;;;17.90;4.03;;;5.60;99.90;;;;;;5074104;28;20397;-73
2021/04/22 02:23:10;;;;;;;16.63;3.63;;;5.60;99.90;;;;;;5087994;28;20194;-73
2021/04/22 02:25:36;;;;;;;12.83;4.80;;;5.60;99.90;;;;;;5078727;28;20466;-73
2021/04/22 02:28:02;;;;;;;16.43;4.80;;;5.50;99.90;;;;;;5085455;28;20459;-73
2021/04/22 02:30:33;;;;;;;7.80;2.83;;;5.50;99.90;;;;;;5081631;28;20261;-73
2021/04/22 02:32:59;;;;;;;6.10;2.80;;;5.40;99.90;;;;;;5075558;28;20186;-74
2021/04/22 02:35:28;;;;;;;13.43;3.43;;;5.40;99.90;;;;;;5078750;28;20423;-74
2021/04/22 02:37:54;;;;;;;7.83;3.60;;;5.40;99.90;;;;;;5083574;28;20501;-74
2021/04/22 02:40:25;;;;;;;13.10;4.00;;;5.30;99.90;;;;;;5088504;28;20526;-73
2021/04/22 02:42:52;;;;;;;10.00;3.17;;;5.30;99.90;;;;;;5083806;28;21032;-74
2021/04/22 02:45:23;;;;;;;14.33;2.90;;;5.30;99.90;;;;;;5077466;28;20412;-74
2021/04/22 02:47:49;;;;;;;11.60;4.03;;;5.20;99.90;;;;;;5086584;28;20431;-74
2021/04/22 02:50:19;;;;;;;5.87;2.70;;;5.20;99.90;;;;;;5094856;28;20951;-74
2021/04/22 02:52:45;;;;;;;14.10;3.30;;;5.20;99.90;;;;;;5077196;28;20285;-74
2021/04/22 02:55:12;;;;;;;9.27;3.13;;;5.20;99.90;;;;;;5073794;28;20448;-73
2021/04/22 02:57:38;;;;;;;13.97;4.10;;;5.20;99.90;;;;;;5074785;28;20194;-73
2021/04/22 03:00:06;;;;;;;7.73;3.33;;;5.10;99.90;;;;;;5076640;28;20479;-74
2021/04/22 03:02:32;;;;;;;13.10;3.70;;;5.10;99.90;;;;;;5083740;28;20443;-74
2021/04/22 03:04:57;;;;;;;11.73;4.23;;;5.00;99.90;;;;;;5091516;28;20466;-74
2021/04/22 03:07:23;;;;;;;18.43;3.40;;;5.00;99.90;;;;;;5074899;28;20416;-74
2021/04/22 03:09:48;;;;;;;13.57;4.30;;;5.10;99.90;;;;;;5073678;28;20569;-74
2021/04/22 03:12:14;;;;;;;12.17;3.43;;;5.00;99.90;;;;;;5080709;28;20197;-74
2021/04/22 03:14:40;;;;;;;19.77;4.90;;;5.00;99.90;;;;;;5082261;28;20170;-74
2021/04/22 03:17:05;;;;;;;14.97;5.33;;;4.90;99.90;;;;;;5077208;28;20698;-74
2021/04/22 03:19:31;;;;;;;6.40;2.90;;;4.90;99.90;;;;;;5090246;28;20189;-74
2021/04/22 03:21:56;;;;;;;6.03;4.33;;;4.90;99.90;;;;;;5076357;28;20221;-73
2021/04/22 03:24:22;;;;;;;12.00;4.03;;;4.90;99.90;;;;;;5090115;28;20173;-74
2021/04/22 03:26:47;;;;;;;9.93;3.30;;;4.90;99.90;;;;;;5092891;28;20200;-74
2021/04/22 03:29:13;;;;;;;14.10;4.80;;;4.90;99.90;;;;;;5081304;28;20236;-74
2021/04/22 03:31:38;;;;;;;14.87;5.40;;;4.80;99.90;;;;;;5077261;28;20180;-74
2021/04/22 03:34:04;;;;;;;16.73;4.90;;;4.80;99.90;;;;;;5075764;28;20185;-74
2021/04/22 03:36:30;;;;;;;14.03;4.13;;;4.80;99.90;;;;;;5074608;28;20214;-74
2021/04/22 03:38:55;;;;;;;13.10;3.60;;;4.80;99.90;;;;;;5080148;28;20207;-74
2021/04/22 03:41:22;;;;;;;13.93;5.00;;;4.80;99.90;;;;;;5068045;28;20853;-74
2021/04/22 03:43:47;;;;;;;13.30;4.83;;;4.80;99.90;;;;;;5081268;28;20177;-74
2021/04/22 03:46:13;;;;;;;7.40;4.00;;;4.80;99.90;;;;;;5095901;28;20420;-74
2021/04/22 03:48:38;;;;;;;11.13;3.73;;;4.80;99.90;;;;;;5076269;28;20182;-74
2021/04/22 03:51:04;;;;;;;15.50;4.77;;;4.70;99.90;;;;;;5090911;28;20543;-75
2021/04/22 03:53:29;;;;;;;17.33;4.67;;;4.70;99.90;;;;;;5072420;28;20233;-74
2021/04/22 03:55:55;;;;;;;9.67;3.80;;;4.70;99.90;;;;;;5086795;28;20205;-74
2021/04/22 03:58:21;;;;;;;19.13;5.60;;;4.70;99.90;;;;;;5078353;28;20166;-74
2021/04/22 04:00:46;;;;;;;15.13;4.97;;;4.70;99.90;;;;;;5079792;28;20197;-74
2021/04/22 04:03:12;;;;;;;11.80;5.00;;;4.60;99.90;;;;;;5079705;28;20233;-74
2021/04/22 04:05:37;;;;;;;10.73;5.03;;;4.70;99.90;;;;;;5069413;28;20184;-74
2021/04/22 04:08:03;;;;;;;14.77;5.63;;;4.60;99.90;;;;;;5079717;28;20213;-74
2021/04/22 04:10:28;;;;;;;21.97;5.30;;;4.60;99.90;;;;;;5074763;28;20182;-74
2021/04/22 04:12:54;;;;;;;17.70;4.50;;;4.60;99.90;;;;;;5077183;28;20243;-74
2021/04/22 04:15:19;;;;;;;16.93;4.20;;;4.60;99.90;;;;;;5088015;28;20188;-74
2021/04/22 04:17:45;;;;;;;10.03;4.50;;;4.60;99.90;;;;;;5076302;28;20740;-74
2021/04/22 04:20:13;;;;;;;11.37;5.03;;;4.70;99.90;;;;;;5064048;28;20185;-74
2021/04/22 04:22:39;;;;;;;18.53;4.80;;;4.60;99.90;;;;;;5071388;28;20246;-74
2021/04/22 04:25:07;;;;;;;17.33;5.07;;;4.70;99.90;;;;;;5094963;28;20476;-74
2021/04/22 04:27:33;;;;;;;8.43;4.63;;;4.60;99.90;;;;;;5088729;28;20520;-74
2021/04/22 04:29:58;;;;;;;17.13;5.47;;;4.60;99.90;;;;;;5078410;28;20458;-74
2021/04/22 04:32:24;;;;;;;10.03;5.00;;;4.70;99.90;;;;;;5077177;28;20670;-74
2021/04/22 04:34:49;;;;;;;14.40;5.50;;;4.70;99.90;;;;;;5075331;28;20591;-74
2021/04/22 04:37:15;;;;;;;13.03;3.93;;;4.70;99.90;;;;;;5071456;28;20667;-74
2021/04/22 04:39:41;;;;;;;16.40;4.60;;;4.70;99.90;;;;;;5068053;28;20243;-74
2021/04/22 04:42:07;;;;;;;22.33;6.10;;;4.70;99.90;;;;;;5082212;28;20197;-74
2021/04/22 04:44:33;;;;;;;21.27;5.80;;;4.80;99.90;;;;;;5084889;28;20177;-74
2021/04/22 04:46:58;;;;;;;21.63;4.67;;;4.80;99.90;;;;;;5076201;28;20438;-74
2021/04/22 04:49:24;;;;;;;20.53;4.80;;;4.80;99.90;;;;;;5074973;28;20988;-74
2021/04/22 04:51:49;;;;;;;13.77;4.60;;;4.80;99.90;;;;;;5076024;28;20196;-74
2021/04/22 04:54:15;;;;;;;9.60;5.00;;;4.80;99.90;;;;;;5074997;28;20203;-75
2021/04/22 04:56:41;;;;;;;17.57;5.03;;;4.80;99.90;;;;;;5080982;28;20631;-74
2021/04/22 04:59:06;;;;;;;15.03;4.80;;;4.80;99.90;;;;;;5077618;28;20170;-74
2021/04/22 05:01:32;;;;;;;15.40;4.53;;;5.00;99.90;;;;;;5076130;28;20189;-74
2021/04/22 05:03:57;;;;;;;12.77;4.50;;;5.00;99.90;;;;;;5073850;28;20163;-74
2021/04/22 05:06:23;;;;;;;11.03;5.10;;;5.10;99.90;;;;;;5076230;28;20201;-74
2021/04/22 05:08:49;;;;;;;12.80;4.30;;;5.10;99.90;;;;;;5079986;28;20281;-74
2021/04/22 05:11:14;;;;;;;12.40;6.03;;;5.10;99.90;;;;;;5075120;28;20174;-74
2021/04/22 05:13:40;;;;;;;17.20;5.63;;;5.20;99.90;;;;;;5074550;28;20206;-75
2021/04/22 05:16:06;;;;;;;18.67;5.43;;;5.20;99.90;;;;;;5074255;28;20575;-74
2021/04/22 05:18:31;;;;;;;20.43;4.50;;;5.20;99.90;;;;;;5075742;28;20166;-74
2021/04/22 05:20:57;;;;;;;11.23;5.60;;;5.30;99.90;;;;;;5073525;28;20949;-74
2021/04/22 05:23:23;;;;;;;12.73;5.17;;;5.40;99.90;;;;;;5074063;28;20561;-74
2021/04/22 05:25:49;;;;;;;9.50;4.80;;;5.40;99.90;;;;;;5090631;28;20180;-74
2021/04/22 05:28:15;;;;;;;16.67;4.50;;;5.40;99.90;;;;;;5070898;28;20178;-75
2021/04/22 05:30:41;;;;;;;12.17;4.60;;;5.60;99.90;;;;;;5075509;28;21024;-74
2021/04/22 05:33:08;;;;;;;13.57;5.00;;;5.70;99.90;;;;;;5074199;28;20193;-75
2021/04/22 05:35:35;;;;;;;21.20;4.10;;;6.00;99.90;;;;;;5074565;28;20420;-74
2021/04/22 05:38:00;;;;;;;12.70;4.27;;;6.50;99.90;;;;;;5081629;28;20508;-74
2021/04/22 05:40:26;;;;;;;17.03;5.70;;;7.20;99.90;;;;;;5083457;28;20947;-75
2021/04/22 05:42:52;;;;;;;15.20;4.10;;;7.90;99.90;;;;;;5074930;28;20535;-75
2021/04/22 05:45:18;;;;;;;11.67;5.77;;;8.60;99.90;;;;;;5075047;28;20190;-75
2021/04/22 05:47:45;;;;;;;17.80;4.63;;;9.30;99.90;;;;;;5073661;28;20860;-75
2021/04/22 05:50:11;;;;;;;20.43;4.83;;;10.00;99.90;;;;;;5056995;28;20167;-75
2021/04/22 05:52:36;;;;;;;11.67;4.63;;;10.40;99.90;;;;;;5085157;28;20535;-75
2021/04/22 05:55:03;;;;;;;12.07;4.80;;;10.90;99.90;;;;;;5074830;28;20456;-75
2021/04/22 05:57:29;;;;;;;14.70;4.83;;;11.30;99.90;;;;;;5086788;28;20293;-75
2021/04/22 05:59:55;;;;;;;16.70;5.20;;;11.70;99.90;;;;;;5081752;28;20470;-75
2021/04/22 06:02:20;;;;;;;12.67;5.20;;;12.00;99.90;;;;;;5069920;28;20247;-75
2021/04/22 06:04:46;;;;;;;13.70;5.00;;;12.50;99.90;;;;;;5076455;28;20165;-75
2021/04/22 06:07:11;;;;;;;16.33;6.20;;;13.00;99.90;;;;;;5080617;28;20257;-75
2021/04/22 06:09:38;;;;;;;21.43;5.17;;;12.90;99.90;;;;;;5074942;28;20193;-75
2021/04/22 06:12:05;;;;;;;19.37;5.70;;;13.00;99.90;;;;;;5094741;28;20196;-76
2021/04/22 06:14:31;;;;;;;12.43;5.90;;;13.30;99.90;;;;;;5087968;28;20424;-75
2021/04/22 06:16:56;;;;;;;15.53;5.07;;;13.50;99.90;;;;;;5070714;28;20484;-75
2021/04/22 06:19:22;;;;;;;11.70;5.57;;;13.60;99.90;;;;;;5086571;28;20183;-75
2021/04/22 06:21:48;;;;;;;13.93;5.90;;;14.10;99.90;;;;;;5073472;28;20280;-74
2021/04/22 06:24:13;;;;;;;18.87;6.17;;;14.40;99.90;;;;;;5076213;28;20181;-75
2021/04/22 06:26:39;;;;;;;21.30;5.57;;;14.30;99.90;;;;;;5076190;28;20182;-75
2021/04/22 06:29:05;;;;;;;16.40;6.00;;;14.40;99.90;;;;;;5089625;28;20201;-75
2021/04/22 06:31:31;;;;;;;23.43;6.30;;;14.40;98.90;;;;;;5089204;28;20177;-75
2021/04/22 06:33:57;;;;;;;16.60;5.53;;;14.30;98.20;;;;;;5072573;28;20939;-75
2021/04/22 06:36:23;;;;;;;20.17;4.90;;;14.10;98.30;;;;;;5071418;28;20455;-75
2021/04/22 06:38:49;;;;;;;11.93;5.70;;;14.00;98.00;;;;;;5071591;28;20249;-75
2021/04/22 06:41:14;;;;;;;17.30;5.30;;;14.10;99.40;;;;;;5071043;28;20178;-75
2021/04/22 06:43:40;;;;;;;13.10;5.50;;;14.10;99.50;;;;;;5072634;28;20822;-75
2021/04/22 06:46:05;;;;;;;22.03;6.60;;;14.00;99.60;;;;;;5081682;28;20174;-75
2021/04/22 06:48:31;;;;;;;15.57;5.10;;;14.00;99.40;;;;;;5071821;28;20185;-75
2021/04/22 06:50:57;;;;;;;16.30;5.67;;;14.30;99.90;;;;;;5069938;28;20221;-75
2021/04/22 06:53:22;;;;;;;12.10;6.00;;;14.70;99.20;;;;;;5074685;28;20209;-75
2021/04/22 06:55:48;;;;;;;19.30;5.07;;;14.70;97.80;;;;;;5069347;28;20223;-75
2021/04/22 06:58:14;;;;;;;10.77;4.67;;;15.20;96.30;;;;;;5081087;28;20216;-75
2021/04/22 07:00:43;;;;;;;24.07;7.17;;;14.90;94.40;;;;;;5085473;28;20174;-76
2021/04/22 07:03:09;;;;;;;14.80;5.87;;;14.60;96.10;;;;;;5069680;28;20447;-75
2021/04/22 07:05:35;;;;;;;21.37;6.10;;;14.80;96.50;;;;;;5084098;28;21118;-76
2021/04/22 07:08:01;;;;;;;14.73;5.40;;;14.90;94.80;;;;;;5071784;28;20653;-75
2021/04/22 07:10:26;;;;;;;12.10;5.60;;;15.20;94.30;;;;;;5077112;28;20439;-75
2021/04/22 07:12:52;;;;;;;17.50;5.00;;;15.30;93.40;;;;;;5077163;28;20202;-75
2021/04/22 07:15:18;;;;;;;13.90;6.17;;;16.00;93.80;;;;;;5081727;28;20178;-75
2021/04/22 07:17:44;;;;;;;16.27;7.40;;;16.50;90.20;;;;;;5074269;28;20460;-76
2021/04/22 07:20:18;;;;;;;10.83;5.63;;;16.40;84.70;;;;;;5083758;28;20181;-75
2021/04/22 07:22:44;;;;;;;16.83;5.27;;;16.00;82.00;;;;;;5087671;28;20443;-75
2021/04/22 07:25:12;;;;;;;17.00;5.10;;;15.70;81.90;;;;;;5078635;28;20423;-75
2021/04/22 07:27:38;;;;;;;15.57;6.00;;;15.70;82.00;;;;;;5081414;28;20667;-76
2021/04/22 07:30:06;;;;;;;16.30;5.23;;;15.50;78.50;;;;;;5072245;28;20428;-76
2021/04/22 07:32:31;;;;;;;11.43;5.33;;;15.90;80.10;;;;;;5086131;28;21044;-76
2021/04/22 07:34:57;;;;;;;14.37;5.70;;;16.40;77.60;;;;;;5095604;28;20400;-77
2021/04/22 07:37:23;;;;;;;11.30;4.70;;;16.40;75.00;;;;;;5085424;28;20202;-77
2021/04/22 07:39:48;;;;;;;13.33;6.00;;;16.60;76.60;;;;;;5086160;28;20216;-77
2021/04/22 07:42:14;;;;;;;19.07;5.13;;;16.80;74.50;;;;;;5085477;28;20293;-77
2021/04/22 07:44:40;;;;;;;10.03;4.27;;;16.70;72.30;;;;;;5094629;28;20186;-76
2021/04/22 07:47:07;;;;;;;9.70;4.00;;;16.50;70.10;;;;;;5092491;28;20208;-77
2021/04/22 07:49:34;;;;;;;12.80;5.00;;;16.50;69.70;;;;;;5091954;28;20432;-77
2021/04/22 07:51:59;;;;;;;14.57;4.20;;;15.90;67.70;;;;;;5091384;28;20507;-77
2021/04/22 07:54:25;;;;;;;10.77;4.67;;;15.60;69.60;;;;;;5093326;28;20518;-76
2021/04/22 07:56:51;;;;;;;15.93;4.10;;;15.20;92.30;;;;;;5088695;28;20730;-76
2021/04/22 07:59:16;;;;;;;11.00;4.37;;;15.00;93.80;;;;;;5093906;28;20170;-75
2021/04/22 08:01:42;;;;;;;10.10;4.20;;;14.90;92.60;;;;;;5093049;28;20235;-76
2021/04/22 08:04:07;;;;;;;10.10;4.40;;;14.90;91.10;;;;;;5094266;28;20169;-76
2021/04/22 08:06:33;;;;;;;13.67;4.60;;;14.50;89.90;;;;;;5092117;28;20551;-74
2021/04/22 08:09:00;;;;;;;11.80;4.43;;;14.30;89.40;;;;;;5086468;28;20208;-75
2021/04/22 08:11:26;;;;;;;7.23;4.00;;;14.20;92.10;;;;;;5073318;28;20436;-77
2021/04/22 08:13:52;;;;;;;6.93;4.23;;;14.40;90.30;;;;;;5071776;28;20497;-76
2021/04/22 08:16:17;;;;;;;15.07;4.03;;;14.60;86.00;;;;;;5073559;28;20456;-76
2021/04/22 08:18:43;;;;;;;10.47;3.47;;;14.70;83.00;;;;;;5087962;28;20177;-77
2021/04/22 08:21:09;;;;;;;7.97;4.17;;;15.30;84.40;;;;;;5094642;28;20288;-77
2021/04/22 08:23:34;;;;;;;13.90;3.80;;;16.20;76.70;;;;;;5096675;28;20197;-77
2021/04/22 08:26:04;;;;;;;7.83;3.77;;;16.70;69.40;;;;;;5096671;28;20178;-73
2021/04/22 08:28:31;;;;;;;9.73;3.90;;;17.00;64.60;;;;;;5099074;28;20420;-77
2021/04/22 08:31:08;;;;;;;7.83;3.50;;;17.20;62.80;;;;;;5096990;28;20504;-77
2021/04/22 08:33:35;;;;;;;8.00;3.40;;;17.50;59.50;;;;;;5092406;28;20470;-77
2021/04/22 08:36:01;;;;;;;8.40;4.13;;;17.30;57.90;;;;;;5093548;28;20427;-75
2021/04/22 08:38:27;;;;;;;12.23;3.80;;;17.30;59.90;;;;;;5092515;28;20765;-76
2021/04/22 08:40:54;;;;;;;10.10;3.73;;;17.90;60.00;;;;;;5074202;28;20539;-77
2021/04/22 08:43:20;;;;;;;7.53;3.57;;;18.30;58.10;;;;;;5084172;28;20236;-76
2021/04/22 08:45:47;;;;;;;9.67;3.27;;;18.50;55.60;;;;;;5087714;28;20490;-74
2021/04/22 08:48:13;;;;;;;13.80;3.40;;;18.70;55.10;;;;;;5095988;28;20404;-77
2021/04/22 08:50:41;;;;;;;8.60;3.00;;;18.60;56.20;;;;;;5091263;28;20434;-76
2021/04/22 08:53:12;;;;;;;9.30;3.73;;;19.00;53.30;;;;;;5089469;28;20446;-77
2021/04/22 08:55:38;;;;;;;15.53;3.60;;;19.10;52.50;;;;;;5071447;28;20425;-77
2021/04/22 08:58:05;;;;;;;8.77;3.80;;;19.50;53.70;;;;;;5083006;28;20473;-75
2021/04/22 09:00:37;;;;;;;7.40;3.50;;;19.80;52.10;;;;;;5088977;28;20403;-77
2021/04/22 09:03:03;;;;;;;12.63;4.50;;;20.10;52.20;;;;;;5084223;28;21012;-77
2021/04/22 09:05:29;;;;;;;12.13;3.60;;;20.10;49.00;;;;;;5072873;28;20408;-77
2021/04/22 09:07:55;;;;;;;12.50;4.13;;;20.00;49.90;;;;;;5070970;28;20471;-77
2021/04/22 09:10:24;;;;;;;11.40;3.20;;;19.90;47.70;;;;;;5081535;28;20854;-77
2021/04/22 09:13:18;;;;;;;10.53;3.83;;;19.80;48.20;;;;;;5080650;28;20258;-77
2021/04/22 09:15:45;;;;;;;12.80;4.07;;;19.70;48.20;;;;;;5089969;28;20780;-77
2021/04/22 09:18:16;;;;;;;10.30;4.10;;;19.50;46.70;;;;;;5083978;28;20517;-77
2021/04/22 09:20:47;;;;;;;14.23;3.90;;;19.60;48.30;;;;;;5073070;28;20467;-77
2021/04/22 09:23:24;;;;;;;10.33;3.70;;;19.70;49.40;;;;;;5082407;28;20540;-76
2021/04/22 09:25:58;;;;;;;14.17;4.10;;;20.10;48.00;;;;;;5086166;28;20459;-77
2021/04/22 09:28:40;;;;;;;12.33;4.13;;;20.20;48.10;;;;;;5092569;28;20406;-77
2021/04/22 09:31:08;;;;;;;10.50;4.47;;;20.50;47.90;;;;;;5087230;28;20423;-77
2021/04/22 09:33:36;;;;;;;8.70;4.50;;;20.40;48.20;;;;;;5091118;28;20528;-77
2021/04/22 09:36:20;;;;;;;10.30;4.80;;;20.50;48.30;;;;;;5087702;28;20407;-77
2021/04/22 09:38:55;;;;;;;9.73;5.10;;;20.30;47.70;;;;;;5077749;28;20437;-79
2021/04/22 09:41:24;;;;;;;13.70;4.60;;;20.50;47.60;;;;;;5100196;28;20443;-80
2021/04/22 09:44:00;;;;;;;10.37;4.30;;;20.60;47.90;;;;;;5096753;28;20439;-79
2021/04/22 09:46:26;;;;;;;9.50;4.30;;;21.40;48.80;;;;;;5074121;28;20492;-79
2021/04/22 09:48:51;;;;;;;9.40;4.80;;;20.90;45.80;;;;;;5097560;28;20419;-79
2021/04/22 09:51:32;;;;;;;11.20;5.10;;;20.60;46.70;;;;;;5096101;28;20238;-79
2021/04/22 09:54:09;;;;;;;12.37;5.27;;;20.90;46.60;;;;;;5078619;28;20668;-79
2021/04/22 09:56:43;;;;;;;11.00;4.83;;;20.80;45.50;;;;;;5089867;28;20454;-79
2021/04/22 09:59:09;;;;;;;10.47;4.43;;;21.00;46.50;;;;;;5099024;28;20423;-79
2021/04/22 10:01:35;;;;;;;12.50;5.53;;;20.90;44.90;;;;;;5107767;28;20787;-79
2021/04/22 10:04:01;;;;;;;13.43;5.70;;;21.10;47.60;;;;;;5099793;28;20423;-80
2021/04/22 10:06:37;;;;;;;16.60;5.67;;;21.10;46.10;;;;;;5096968;28;20441;-79
2021/04/22 10:09:05;;;;;;;11.10;5.07;;;20.50;44.80;;;;;;5079858;28;20782;-80
2021/04/22 10:11:50;;;;;;;15.37;5.40;;;18.50;45.80;;;;;;5075187;28;20419;-80
2021/04/22 10:14:27;;;;;;;9.37;4.60;;;19.20;48.40;;;;;;5055200;28;20910;-80
2021/04/22 10:16:53;;;;;;;7.23;4.40;;;19.40;48.40;;;;;;5055388;28;20484;-80
2021/04/22 10:19:19;;;;;;;7.60;4.13;;;19.60;47.80;;;;;;5100627;28;20459;-80
2021/04/22 10:21:45;;;;;;;18.00;4.97;;;19.60;48.30;;;;;;5104031;28;20216;-79
2021/04/22 10:24:15;;;;;;;12.67;5.00;;;19.60;47.40;;;;;;5103498;28;20511;-79
2021/04/22 10:26:42;;;;;;;11.60;4.43;;;19.50;48.30;;;;;;5103060;28;20498;-79
2021/04/22 10:29:08;;;;;;;13.30;5.20;;;20.20;48.30;;;;;;5095720;28;20970;-80
2021/04/22 10:31:35;;;;;;;12.40;4.63;;;19.90;46.70;;;;;;5095625;28;20396;-79
2021/04/22 10:34:02;;;;;;;7.23;4.13;;;19.70;46.70;;;;;;5097073;28;20837;-80
2021/04/22 10:36:30;;;;;;;19.07;6.00;;;19.60;48.70;;;;;;5082291;28;20820;-80
2021/04/22 10:38:56;;;;;;;10.30;5.97;;;19.00;47.40;;;;;;5095984;28;20427;-80
2021/04/22 10:41:21;;;;;;;14.50;5.87;;;18.20;48.00;;;;;;5097454;28;20446;-79
2021/04/22 10:43:48;;;;;;;10.13;5.70;;;17.80;49.50;;;;;;5098079;28;20526;-79
2021/04/22 10:46:16;;;;;;;8.00;5.60;;;17.70;49.60;;;;;;5101381;28;20208;-79
2021/04/22 10:48:41;;;;;;;14.83;6.07;;;17.80;51.00;;;;;;5099749;28;20456;-80
2021/04/22 10:51:07;;;;;;;8.03;4.93;;;18.20;50.20;;;;;;5086915;28;20835;-79
2021/04/22 10:53:38;;;;;;;7.87;4.60;;;18.50;49.60;;;;;;5099918;28;20728;-80
2021/04/22 10:56:04;;;;;;;8.10;4.90;;;19.00;48.30;;;;;;5098861;28;20166;-80
2021/04/22 10:58:39;;;;;;;12.03;6.50;;;19.20;48.30;;;;;;5100988;28;20417;-79
2021/04/22 11:01:11;;;;;;;6.90;5.47;;;19.00;46.70;;;;;;5097706;28;20430;-79
2021/04/22 11:03:51;;;;;;;10.23;5.30;;;19.40;47.90;;;;;;5095608;28;20438;-79
2021/04/22 11:06:19;;;;;;;14.07;5.43;;;19.90;47.50;;;;;;5069762;28;20412;-79
2021/04/22 11:08:48;;;;;;;10.30;4.90;;;20.50;47.50;;;;;;5100442;28;20434;-80
2021/04/22 11:11:49;;;;;;;10.17;4.87;;;20.60;46.80;;;;;;5102594;28;20415;-79
2021/04/22 11:14:38;;;;;;;7.13;4.87;;;20.80;47.10;;;;;;5079566;28;20392;-79
2021/04/22 11:17:05;;;;;;;10.57;5.17;;;20.90;46.90;;;;;;5100594;28;20463;-79
2021/04/22 11:19:34;;;;;;;11.30;5.47;;;20.90;45.70;;;;;;5102270;28;20411;-79
2021/04/22 11:22:21;;;;;;;10.83;5.30;;;20.70;46.40;;;;;;5098994;28;20450;-79
2021/04/22 11:25:03;;;;;;;13.73;5.60;;;19.90;46.40;;;;;;5098831;28;20913;-80
2021/04/22 11:27:31;;;;;;;8.13;5.17;;;20.20;47.30;;;;;;5100878;28;20477;-79
2021/04/22 11:29:59;;;;;;;13.20;6.13;;;19.80;48.40;;;;;;5100067;28;20428;-79
2021/04/22 11:32:24;;;;;;;7.93;4.80;;;20.20;48.90;;;;;;5101323;28;20538;-79
2021/04/22 11:34:52;;;;;;;9.80;5.10;;;20.10;48.40;;;;;;5097910;28;20427;-79
2021/04/22 11:37:43;;;;;;;11.07;5.17;;;20.40;46.90;;;;;;5102699;28;20193;-79
2021/04/22 11:40:39;;;;;;;12.43;5.80;;;20.60;47.60;;;;;;5096957;28;20493;-78
2021/04/22 11:43:05;;;;;;;12.73;5.80;;;20.20;44.80;;;;;;5082276;28;20451;-79
2021/04/22 11:45:35;;;;;;;7.60;4.60;;;20.80;47.00;;;;;;5087701;28;20435;-79
2021/04/22 11:48:07;;;;;;;10.87;5.70;;;20.70;46.20;;;;;;5086604;28;20427;-78
2021/04/22 11:50:43;;;;;;;8.10;4.50;;;20.30;46.40;;;;;;5077746;28;20898;-79
2021/04/22 11:53:09;;;;;;;13.03;5.07;;;20.30;47.10;;;;;;5099980;28;20458;-79
2021/04/22 11:55:41;;;;;;;11.53;5.97;;;20.20;47.10;;;;;;5109680;28;20516;-79
2021/04/22 11:58:12;;;;;;;6.43;4.40;;;20.40;47.40;;;;;;5106073;28;20567;-79
2021/04/22 12:00:41;;;;;;;10.57;4.40;;;20.40;46.40;;;;;;5075923;28;20415;-79
2021/04/22 12:03:10;;;;;;;9.13;5.90;;;20.90;47.10;;;;;;5088612;28;20804;-81
2021/04/22 12:05:36;;;;;;;11.97;5.30;;;20.80;46.40;;;;;;5097164;28;20790;-79
2021/04/22 12:08:03;;;;;;;8.00;5.70;;;20.30;45.70;;;;;;5086325;28;20529;-79
2021/04/22 12:10:31;;;;;;;10.37;5.67;;;20.40;45.80;;;;;;5079123;28;20436;-78
2021/04/22 12:13:14;;;;;;;10.80;6.70;;;20.60;44.50;;;;;;5079060;28;20448;-79
2021/04/22 12:15:43;;;;;;;8.60;5.40;;;20.50;46.60;;;;;;5095190;28;20431;-80
2021/04/22 12:18:10;;;;;;;8.53;5.30;;;20.30;45.50;;;;;;5098040;28;20486;-79
2021/04/22 12:20:37;;;;;;;11.47;5.53;;;20.90;47.90;;;;;;5101046;28;20408;-80
2021/04/22 12:23:03;;;;;;;10.43;5.80;;;20.80;46.30;;;;;;5097225;28;20447;-80
2021/04/22 12:25:29;;;;;;;11.93;5.97;;;21.10;47.00;;;;;;5106508;28;20427;-79
2021/04/22 12:28:02;;;;;;;10.67;6.93;;;20.90;46.20;;;;;;5094986;28;20440;-79
2021/04/22 12:30:32;;;;;;;10.10;5.60;;;20.60;46.00;;;;;;5079571;28;20182;-79
2021/04/22 12:33:00;;;;;;;10.10;5.97;;;21.10;46.90;;;;;;5089373;28;20444;-79
2021/04/22 12:35:30;;;;;;;8.10;5.80;;;21.30;46.70;;;;;;5101503;28;20412;-80
2021/04/22 12:37:58;;;;;;;9.23;4.93;;;21.10;45.20;;;;;;5096700;28;20515;-80
2021/04/22 12:40:24;;;;;;;10.20;5.63;;;20.90;45.10;;;;;;5095316;28;20439;-79
2021/04/22 12:42:50;;;;;;;10.10;5.43;;;20.50;45.90;;;;;;5083284;28;20452;-79
2021/04/22 12:45:16;;;;;;;12.23;5.43;;;20.70;46.30;;;;;;5099767;28;20504;-80